PROFILE

 METAR AND TAF INFORMATION
ADDS - METARS form results

(0531 UTC 09 August 2020)
http://aviationweather.gov/metar/data/
 
ORBI 090500Z 28014KT CAVOK 34/17 Q0997 NOSIG
TAF ORBI 090400Z 0906/1006 30018KT CAVOK 

 AIRPORT MAP

 RUNWAY INFORMATION
Runway 15L Runway length 13124 ft Runway width 197 ft
Runway elevation 113 ft Runway displaced threshold 0 ft Runway heading 150
Runway 33R Runway length 13124 ft Runway width 197 ft
Runway elevation 110 ft Runway displaced threshold 0 ft Runway heading 330
Runway 15R Runway length 10830 ft Runway width 148 ft
Runway elevation 114 ft Runway displaced threshold 0 ft Runway heading 150
Runway 33L Runway length 10830 ft Runway width 148 ft
Runway elevation 113 ft Runway displaced threshold 0 ft Runway heading 330

 AIRPORT FREQUENCIES
Type ACC Name BALAD ACC Frequency 123.52 MHZ
Type APP Name APP Frequency 128.2 MHZ
Type ATIS Name INFO Frequency 127.25 MHZ
Type DEP Name DEP Frequency 131.9 MHZ
Type GND Name GND Frequency 121.7 MHZ
Type HEL Name HELO Frequency 131.7 MHZ
Type PMSV Name METRO Frequency 116.15 MHZ
Type POST Name COMD POST Frequency 133.5 MHZ
Type RDO Name RDO Frequency 127.35 MHZ
Type TWR Name TWR Frequency 118.7 MHZ

 AIRPORT NEAR NAVIGATION AIDS
Type TACAN Name Baghdad Frequency 133700 KHZ